Airfield :







YOU CAN JOIN US ON...

 
LOGIN :

Register | Disclaimer

   EN    FR    IT 

 









Legend :    VFR   Marginal VFR   IFR   Intensive IFR   Very Intensive IFR
Visi :
Ceiling :
>= 8 km
>= 3000ft
5 to 8 km
1000 to 3000 ft
1500m to 5 km
500 to 1000 ft
800 to 1500m
200 to 500 ft
< 800m
< 200 ft
Symbols :   Thunderstorms  Fog  Heavy snow  Heavy precipitations  Wind > 20 kt






- Airport Elevation : 234 ft
- IATA code : PBG


KPBG - Plattsburgh International

CURRENT METAR :
  • 061753Z AUTO 30007G15KT 280V350 10SM FEW075 27/11 A2969 RMK AO2 SLP055 T02720106 10278 20194 58010

EXPIRED METARs :
  • 061653Z AUTO 31007KT 260V330 10SM SCT065 27/12 A2971 RMK AO2 SLP061 T02670117
  • 061553Z AUTO 06005KT 10SM FEW055 23/18 A2972 RMK AO2 SLP064 T02330183

TAF KPBG
Valid from the 06 at 18:00 until the 07 at 18:00 UTC


061732Z 0618/0718 32009KT P6SM VCSH SCT050
FM070200 34009KT P6SM BKN035
FM070700 34008KT P6SM BKN028
FM071200 34008KT P6SM SCT050
KZBW FIR / North America



MET'MAP, your aeronautical weather chart ! - Copyright ORBIFLY December 2007 - Disclaimer

ORBIFLY MET'MAP TEAM :

Programming & Development : Alexandra Zaïnal
Concept & original design : Baudouin d'Aumeries
Assistance for programming : Marc-Olivier Méhu
Technical & hardware support : Manuel Goepfert

Contact : metmap@orbifly.com




SOURCES & CREDITS :

   NOAA